Aegean Viii — SXKO — position and weather

sailwx.info

Track history (hours):
 
Tides and Currents Weather Stations Pressure Air Temp Water Temp Dewpoint Dewpoint Depression Visibility Wind Speed Wind Dir Waves Ship Positions

Aegean Viii

Last reported at 2016-May-28 20:19 UTC. Time now 2016-May-28 22:10 UTC.
Position N 38°01' E 022°48'.

Length 75 m; draft 3.8 m.

Type: Tanker. MMSI: 240732000.

Date/timePositionNaut miles runAvg speedWind from/ knotsBaromVisibWave heightAir tempDewpointWater temp
2016-May-28 20:19N 38°01' E 022°48'7 8.6
2016-May-28 19:30N 38°05' E 022°41'9 9.3
2016-May-28 18:32N 38°09' E 022°31'13 9.7
2016-May-28 17:14N 38°15' E 022°16'  
2016-May-23 00:16N 38°14' E 022°19'8 8.4
2016-May-22 23:16N 38°11' E 022°28'30 7.6
2016-May-22 19:22N 37°55' E 023°00'2 2.2
2016-May-22 18:33N 37°54' E 023°02'7 6.8
2016-May-22 17:33N 37°54' E 023°11'9 9.1
2016-May-22 16:33N 37°57' E 023°22'7 7.1
2016-May-22 15:33N 38°01' E 023°29'2 2.4
2016-May-22 14:34N 38°02' E 023°32'0 0.0
2016-May-22 13:34N 38°02' E 023°32'0 0.0
2016-May-22 12:33N 38°02' E 023°32'0 0.0
2016-May-21 03:10N 38°02' E 023°32'0 0.0
2016-May-21 02:33N 38°02' E 023°32'3 2.8
2016-May-21 01:33N 38°02' E 023°35'0 0.2
2016-May-21 00:33N 38°02' E 023°36'0 0.0
2016-May-20 23:33N 38°02' E 023°36'0 0.0
2016-May-20 22:33N 38°02' E 023°36'0 0.0
2016-May-20 21:33N 38°02' E 023°36'0 0.1
2016-May-20 20:33N 38°02' E 023°36'1 0.7
2016-May-20 19:33N 38°02' E 023°35'3 3.2
2016-May-20 18:34N 38°02' E 023°31'0 0.0
2016-May-20 17:34N 38°02' E 023°31'0 0.0
2016-May-20 16:34N 38°02' E 023°31'0 0.0
2016-May-20 15:34N 38°02' E 023°31'0 0.2
2016-May-20 14:33N 38°02' E 023°31'1 0.8
2016-May-20 13:33N 38°02' E 023°32'0 0.0
2016-May-20 09:31N 38°02' E 023°32'0 0.1
2016-May-20 08:33N 38°02' E 023°32'0 0.1
2016-May-20 07:33N 38°02' E 023°32'0 0.0
2016-May-20 06:33N 38°02' E 023°32'0 0.0
2016-May-20 05:34N 38°02' E 023°32'0 0.0
2016-May-20 04:33N 38°02' E 023°32'0 0.0
2016-May-20 03:33N 38°02' E 023°32'0 0.0
2016-May-20 02:33N 38°02' E 023°32'0 0.0
2016-May-20 01:33N 38°02' E 023°32'0 0.0
2016-May-20 00:33N 38°02' E 023°32'0 0.0
2016-May-19 11:34N 38°02' E 023°32'0 0.0
2016-May-19 10:33N 38°02' E 023°32'0 0.0
2016-May-19 09:33N 38°02' E 023°32'0 0.0
2016-May-19 08:33N 38°02' E 023°32'0 0.0
2016-May-19 07:34N 38°02' E 023°32'0 0.0
2016-May-19 06:33N 38°02' E 023°32'0 0.0
2016-May-19 05:33N 38°02' E 023°32'  
Track history (hours):
 
Tides and Currents Weather Stations Pressure Air Temp Water Temp Dewpoint Dewpoint Depression Visibility Wind Speed Wind Dir Waves Ship Positions

Aegean Viii

Last reported at 2016-May-28 20:19 UTC. Time now 2016-May-28 22:10 UTC.
Position N 38°01' E 022°48'.

Length 75 m; draft 3.8 m.

Type: Tanker. MMSI: 240732000.

Date/timePositionNaut miles runAvg speedWind from/ knotsBaromVisibWave heightAir tempDewpointWater temp
2016-May-28 20:19N 38°01' E 022°48'7 8.6
2016-May-28 19:30N 38°05' E 022°41'9 9.3
2016-May-28 18:32N 38°09' E 022°31'13 9.7
2016-May-28 17:14N 38°15' E 022°16'  
2016-May-23 00:16N 38°14' E 022°19'8 8.4
2016-May-22 23:16N 38°11' E 022°28'30 7.6
2016-May-22 19:22N 37°55' E 023°00'2 2.2
2016-May-22 18:33N 37°54' E 023°02'7 6.8
2016-May-22 17:33N 37°54' E 023°11'9 9.1
2016-May-22 16:33N 37°57' E 023°22'7 7.1
2016-May-22 15:33N 38°01' E 023°29'2 2.4
2016-May-22 14:34N 38°02' E 023°32'0 0.0
2016-May-22 13:34N 38°02' E 023°32'0 0.0
2016-May-22 12:33N 38°02' E 023°32'0 0.0
2016-May-21 03:10N 38°02' E 023°32'0 0.0
2016-May-21 02:33N 38°02' E 023°32'3 2.8
2016-May-21 01:33N 38°02' E 023°35'0 0.2
2016-May-21 00:33N 38°02' E 023°36'0 0.0
2016-May-20 23:33N 38°02' E 023°36'0 0.0
2016-May-20 22:33N 38°02' E 023°36'0 0.0
2016-May-20 21:33N 38°02' E 023°36'0 0.1
2016-May-20 20:33N 38°02' E 023°36'1 0.7
2016-May-20 19:33N 38°02' E 023°35'3 3.2
2016-May-20 18:34N 38°02' E 023°31'0 0.0
2016-May-20 17:34N 38°02' E 023°31'0 0.0
2016-May-20 16:34N 38°02' E 023°31'0 0.0
2016-May-20 15:34N 38°02' E 023°31'0 0.2
2016-May-20 14:33N 38°02' E 023°31'1 0.8
2016-May-20 13:33N 38°02' E 023°32'0 0.0
2016-May-20 09:31N 38°02' E 023°32'0 0.1
2016-May-20 08:33N 38°02' E 023°32'0 0.1
2016-May-20 07:33N 38°02' E 023°32'0 0.0
2016-May-20 06:33N 38°02' E 023°32'0 0.0
2016-May-20 05:34N 38°02' E 023°32'0 0.0
2016-May-20 04:33N 38°02' E 023°32'0 0.0
2016-May-20 03:33N 38°02' E 023°32'0 0.0
2016-May-20 02:33N 38°02' E 023°32'0 0.0
2016-May-20 01:33N 38°02' E 023°32'0 0.0
2016-May-20 00:33N 38°02' E 023°32'0 0.0
2016-May-19 11:34N 38°02' E 023°32'0 0.0
2016-May-19 10:33N 38°02' E 023°32'0 0.0
2016-May-19 09:33N 38°02' E 023°32'0 0.0
2016-May-19 08:33N 38°02' E 023°32'0 0.0
2016-May-19 07:34N 38°02' E 023°32'0 0.0
2016-May-19 06:33N 38°02' E 023°32'0 0.0
2016-May-19 05:33N 38°02' E 023°32'  

Dump ship's entire track history